Time;durP1;ratioP1;P1;durP2;ratioP2;P2;SDS_P1;SDS_P2;PMS_P1;PMS_P2;Temp;Humidity;BMP_temperature;BMP_pressure;BME280_temperature;BME280_humidity;BME280_pressure;Samples;Min_cycle;Max_cycle;Signal;HPM_P1;HPM_P2
2023/07/27 00:01:11;;;;;;;7.80;4.60;;;;;;;23.57;55.20;95989.88;5087728;28;20188;-76
2023/07/27 00:03:38;;;;;;;8.70;5.47;;;;;;;23.56;57.42;96030.50;5086891;28;20568;-81
2023/07/27 00:06:05;;;;;;;9.07;4.70;;;;;;;23.29;58.58;96003.53;5087384;28;20607;-70
2023/07/27 00:08:32;;;;;;;7.57;4.70;;;;;;;23.13;59.69;95986.94;5087107;28;20261;-73
2023/07/27 00:10:59;;;;;;;10.47;5.23;;;;;;;23.32;60.58;96012.97;5086862;28;20215;-76
2023/07/27 00:13:26;;;;;;;8.40;4.43;;;;;;;22.81;60.30;95987.09;5069154;28;20292;-75
2023/07/27 00:15:54;;;;;;;10.30;5.20;;;;;;;22.87;60.64;95970.56;5086665;28;20203;-75
2023/07/27 00:18:21;;;;;;;8.27;4.23;;;;;;;22.70;61.26;95979.53;5069464;28;20190;-82
2023/07/27 00:20:48;;;;;;;5.80;4.00;;;;;;;22.64;60.22;95968.69;5086767;28;20281;-80
2023/07/27 00:23:15;;;;;;;6.17;4.00;;;;;;;22.60;60.58;95962.09;5087040;28;20187;-71
2023/07/27 00:25:43;;;;;;;9.37;4.13;;;;;;;22.73;59.44;95995.06;5068531;28;20194;-77
2023/07/27 00:28:10;;;;;;;5.17;3.60;;;;;;;22.78;59.04;96014.66;5086640;28;20670;-72
2023/07/27 00:30:37;;;;;;;7.40;4.33;;;;;;;22.76;58.09;95978.84;5086882;28;20712;-72
2023/07/27 00:33:04;;;;;;;5.57;4.00;;;;;;;22.74;58.22;95992.22;5086547;28;20195;-73
2023/07/27 00:35:31;;;;;;;7.23;4.77;;;;;;;22.91;58.25;95998.28;5069237;28;20194;-74
2023/07/27 00:37:59;;;;;;;5.73;4.30;;;;;;;22.91;57.83;95966.59;5086614;28;20732;-72
2023/07/27 00:40:26;;;;;;;6.23;4.27;;;;;;;23.05;56.91;96000.19;5086685;28;20227;-71
2023/07/27 00:42:53;;;;;;;5.47;4.07;;;;;;;23.07;56.78;95977.06;5068449;28;20240;-71
2023/07/27 00:45:20;;;;;;;4.80;4.07;;;;;;;22.75;57.48;95966.66;5086565;28;20187;-71
2023/07/27 00:47:48;;;;;;;8.77;4.30;;;;;;;22.81;57.26;95984.47;5067902;28;20294;-73
2023/07/27 00:50:15;;;;;;;3.80;3.47;;;;;;;22.83;57.03;95978.03;5086262;28;20204;-70
2023/07/27 00:52:43;;;;;;;4.77;3.70;;;;;;;22.82;56.99;95994.84;5052048;28;20690;-71
2023/07/27 00:55:11;;;;;;;7.03;4.50;;;;;;;22.77;56.70;95991.91;5086034;28;20273;-71
2023/07/27 00:57:39;;;;;;;6.40;4.13;;;;;;;22.91;56.91;96006.19;5086735;28;20201;-72
2023/07/27 01:00:07;;;;;;;5.50;4.30;;;;;;;22.83;56.54;95985.13;5068455;28;20218;-73
2023/07/27 01:02:34;;;;;;;7.23;5.40;;;;;;;22.78;56.29;96019.94;5086369;28;20220;-72
2023/07/27 01:05:02;;;;;;;5.73;4.20;;;;;;;22.86;56.09;96000.59;5068803;28;20192;-78
2023/07/27 01:07:29;;;;;;;7.20;5.33;;;;;;;22.75;56.41;96008.91;5085996;28;20202;-75
2023/07/27 01:09:58;;;;;;;7.50;4.47;;;;;;;22.83;56.25;96008.88;5068742;28;20261;-75
2023/07/27 01:12:37;;;;;;;6.73;4.93;;;;;;;22.79;56.53;96012.84;5068057;28;20719;-72
2023/07/27 01:15:14;;;;;;;8.23;6.03;;;;;;;22.94;55.78;96008.47;5091179;28;20191;-74
2023/07/27 01:17:52;;;;;;;5.53;4.93;;;;;;;22.95;56.04;95994.31;5073752;28;20195;-72
2023/07/27 01:20:34;;;;;;;8.93;6.13;;;;;;;22.90;55.83;96018.56;5069543;28;20201;-71
2023/07/27 01:23:24;;;;;;;7.63;4.77;;;;;;;22.88;56.02;96004.72;5069714;28;20191;-70
2023/07/27 01:26:40;;;;;;;5.30;4.07;;;;;;;22.81;55.37;96013.50;5086594;28;20194;-74
2023/07/27 01:29:22;;;;;;;8.50;4.80;;;;;;;22.90;54.95;96005.38;5067744;28;20206;-71
2023/07/27 01:31:51;;;;;;;7.70;5.17;;;;;;;22.85;55.08;95996.31;5052158;28;20229;-78
2023/07/27 01:34:29;;;;;;;5.53;4.23;;;;;;;23.01;55.16;96025.31;5086254;28;20726;-74
2023/07/27 01:37:01;;;;;;;8.17;4.47;;;;;;;22.99;54.82;96020.22;5086313;28;20240;-74
2023/07/27 01:39:32;;;;;;;6.03;3.87;;;;;;;22.96;55.30;96014.41;5068641;28;20248;-76
2023/07/27 01:42:01;;;;;;;5.27;3.90;;;;;;;22.84;55.16;96026.34;5067791;28;20183;-76
2023/07/27 01:44:31;;;;;;;4.90;4.37;;;;;;;22.81;55.97;96024.06;5086586;28;20782;-79
2023/07/27 01:47:00;;;;;;;5.47;4.33;;;;;;;22.89;55.94;96038.06;5067544;28;20232;-76
2023/07/27 01:49:29;;;;;;;5.80;4.73;;;;;;;22.71;56.60;96039.28;5068266;28;20733;-79
2023/07/27 01:51:58;;;;;;;4.53;3.97;;;;;;;22.61;57.43;96050.84;5068110;28;20602;-80
2023/07/27 01:54:29;;;;;;;8.00;4.40;;;;;;;22.38;58.10;96039.28;5068068;28;20187;-74
2023/07/27 01:56:56;;;;;;;7.77;4.40;;;;;;;22.42;58.32;96040.59;5068395;28;20251;-76
2023/07/27 01:59:24;;;;;;;7.33;5.03;;;;;;;22.38;58.31;96055.13;5070690;28;20187;-79
2023/07/27 02:01:53;;;;;;;6.93;4.53;;;;;;;22.26;58.81;96048.53;5071941;28;20186;-74
2023/07/27 02:04:20;;;;;;;5.90;4.13;;;;;;;22.14;59.17;96051.66;5089495;28;20212;-79
2023/07/27 02:06:51;;;;;;;5.40;4.60;;;;;;;21.91;58.95;96040.94;5089773;28;20192;-74
2023/07/27 02:09:18;;;;;;;5.63;4.23;;;;;;;21.91;58.99;96029.59;5071083;28;20222;-74
2023/07/27 02:11:51;;;;;;;7.37;4.70;;;;;;;22.04;59.20;96051.00;5071158;28;20225;-82
2023/07/27 02:14:31;;;;;;;7.40;4.70;;;;;;;22.13;59.11;96074.59;5071605;28;20174;-74
2023/07/27 02:17:11;;;;;;;5.23;3.93;;;;;;;22.04;59.01;96062.38;5070826;28;20193;-80
2023/07/27 02:20:01;;;;;;;7.00;4.03;;;;;;;22.00;58.86;96044.41;5074244;28;20202;-75
2023/07/27 02:22:29;;;;;;;8.27;4.30;;;;;;;21.93;58.82;96054.78;5089365;28;20189;-74
2023/07/27 02:24:56;;;;;;;6.33;4.40;;;;;;;21.77;59.10;96054.75;5070670;28;20193;-76
2023/07/27 02:27:24;;;;;;;5.17;3.70;;;;;;;21.71;58.89;96043.03;5089707;28;20276;-76
2023/07/27 02:29:51;;;;;;;6.87;4.23;;;;;;;22.04;57.96;96057.13;5088894;28;20753;-78
2023/07/27 02:32:18;;;;;;;6.77;4.40;;;;;;;22.16;57.73;96065.50;5071263;28;20976;-79
2023/07/27 02:34:45;;;;;;;4.27;3.70;;;;;;;21.96;57.57;96070.28;5088916;28;20190;-77
2023/07/27 02:37:14;;;;;;;6.93;4.23;;;;;;;21.97;57.55;96064.03;5053949;28;20202;-75
2023/07/27 02:39:41;;;;;;;4.90;3.67;;;;;;;21.92;56.87;96063.69;5054082;28;20692;-77
2023/07/27 02:42:08;;;;;;;6.27;3.77;;;;;;;21.80;56.61;96070.25;5037234;28;20661;-78
2023/07/27 02:44:35;;;;;;;4.07;3.13;;;;;;;21.88;56.81;96086.09;5089078;28;20194;-73
2023/07/27 02:47:02;;;;;;;5.20;3.87;;;;;;;21.88;56.46;96090.53;5088325;28;20239;-73
2023/07/27 02:49:30;;;;;;;6.00;3.70;;;;;;;21.63;56.95;96087.00;5071118;28;20695;-78
2023/07/27 02:51:57;;;;;;;5.30;3.60;;;;;;;21.69;56.74;96084.56;5070069;28;20209;-79
2023/07/27 02:54:25;;;;;;;6.43;3.63;;;;;;;21.60;56.49;96068.88;5070604;28;20226;-81
2023/07/27 02:56:52;;;;;;;5.37;3.47;;;;;;;21.54;56.33;96101.13;5070602;28;20189;-72
2023/07/27 02:59:26;;;;;;;5.83;3.40;;;;;;;21.65;56.13;96087.66;5070234;28;20185;-73
2023/07/27 03:01:53;;;;;;;4.73;3.30;;;;;;;21.68;55.58;96088.16;5070760;28;20185;-73
2023/07/27 03:04:26;;;;;;;6.37;3.67;;;;;;;21.64;55.36;96107.91;5069705;28;20234;-78
2023/07/27 03:06:53;;;;;;;6.40;3.77;;;;;;;21.39;55.69;96079.03;5070714;28;20181;-71
2023/07/27 03:09:23;;;;;;;5.93;2.80;;;;;;;21.53;55.40;96100.34;5069279;28;20228;-72
2023/07/27 03:11:50;;;;;;;6.90;3.33;;;;;;;21.48;54.86;96113.16;5070156;28;20232;-71
2023/07/27 03:14:17;;;;;;;8.70;3.40;;;;;;;21.39;55.10;96126.47;5070388;28;20287;-74
2023/07/27 03:16:44;;;;;;;4.53;3.20;;;;;;;21.36;55.42;96103.06;5061479;28;20202;-70
2023/07/27 03:19:11;;;;;;;4.73;3.07;;;;;;;21.35;55.36;96090.88;5041874;28;20752;-80
2023/07/27 03:21:41;;;;;;;4.27;3.17;;;;;;;21.33;54.88;96093.66;5049709;28;20261;-71
2023/07/27 03:24:08;;;;;;;5.50;3.30;;;;;;;21.49;54.43;96116.59;5053696;28;20269;-73
2023/07/27 03:26:36;;;;;;;5.17;2.80;;;;;;;21.37;54.81;96107.34;5069742;28;20186;-73
2023/07/27 03:29:03;;;;;;;8.20;4.07;;;;;;;21.21;54.52;96094.09;5068274;28;20221;-78
2023/07/27 03:31:31;;;;;;;6.30;3.13;;;;;;;21.33;54.77;96117.34;5078607;28;20267;-85
2023/07/27 03:33:58;;;;;;;6.47;3.40;;;;;;;21.34;54.30;96115.56;5032647;28;20208;-74
2023/07/27 03:36:25;;;;;;;5.27;3.17;;;;;;;21.31;54.58;96126.44;5049945;28;20190;-76
2023/07/27 03:38:52;;;;;;;8.13;3.40;;;;;;;21.34;54.30;96140.09;5032360;28;20694;-76
2023/07/27 03:41:20;;;;;;;7.60;3.67;;;;;;;21.23;54.02;96150.06;5067942;28;20191;-73
2023/07/27 03:43:47;;;;;;;3.87;3.00;;;;;;;21.31;53.73;96148.28;5049320;28;20659;-75
2023/07/27 03:46:15;;;;;;;3.87;2.87;;;;;;;21.10;54.25;96149.69;5049494;28;20201;-72
2023/07/27 03:48:42;;;;;;;6.90;3.50;;;;;;;20.98;54.64;96152.53;5032663;28;20201;-71
2023/07/27 03:51:09;;;;;;;7.00;3.27;;;;;;;21.04;54.51;96157.22;5049010;28;20779;-71
2023/07/27 03:53:38;;;;;;;5.20;3.33;;;;;;;21.10;54.22;96145.25;5049371;28;20225;-76
2023/07/27 03:56:05;;;;;;;5.60;3.50;;;;;;;21.17;54.21;96153.31;5066673;28;20177;-73
2023/07/27 03:58:32;;;;;;;4.50;3.50;;;;;;;21.06;54.53;96165.78;5045971;28;20208;-73
2023/07/27 04:00:59;;;;;;;3.87;3.20;;;;;;;21.06;54.37;96125.47;5068890;28;20704;-80
2023/07/27 04:03:26;;;;;;;4.53;2.90;;;;;;;21.04;54.61;96133.50;5052848;28;20184;-72
2023/07/27 04:05:54;;;;;;;5.17;3.40;;;;;;;21.18;54.36;96147.94;5087113;28;20229;-72
2023/07/27 04:08:21;;;;;;;5.00;3.23;;;;;;;21.17;53.59;96127.00;5086829;28;20307;-73
2023/07/27 04:10:48;;;;;;;4.47;3.27;;;;;;;21.24;53.44;96141.19;5080281;28;20644;-71
2023/07/27 04:13:15;;;;;;;5.17;3.27;;;;;;;21.30;52.98;96137.94;5058421;28;20338;-73
2023/07/27 04:15:42;;;;;;;3.50;2.83;;;;;;;21.30;53.12;96140.56;5049271;28;20268;-72
2023/07/27 04:18:10;;;;;;;4.77;2.97;;;;;;;21.43;52.77;96156.75;5048747;28;20666;-75
2023/07/27 04:20:37;;;;;;;5.47;3.03;;;;;;;21.45;52.50;96174.03;5048852;28;20203;-74
2023/07/27 04:23:05;;;;;;;4.37;3.07;;;;;;;21.43;52.26;96141.75;5067142;28;20219;-71
2023/07/27 04:25:33;;;;;;;6.03;3.63;;;;;;;21.40;52.02;96167.59;5068264;28;20664;-71
2023/07/27 04:28:00;;;;;;;4.50;2.80;;;;;;;21.53;51.88;96170.63;5069029;28;20190;-72
2023/07/27 04:30:27;;;;;;;8.10;4.27;;;;;;;21.36;51.98;96172.38;5051274;28;20591;-73
2023/07/27 04:32:54;;;;;;;7.37;2.87;;;;;;;21.39;52.07;96182.56;5087052;28;20213;-72
2023/07/27 04:35:21;;;;;;;4.57;2.90;;;;;;;21.10;52.23;96162.84;5086267;28;20266;-74
2023/07/27 04:37:48;;;;;;;6.40;3.43;;;;;;;21.34;52.21;96199.84;5069042;28;20238;-72
2023/07/27 04:40:24;;;;;;;5.90;2.97;;;;;;;21.37;52.32;96212.72;5068671;28;20588;-73
2023/07/27 04:42:59;;;;;;;6.97;3.17;;;;;;;21.47;52.13;96184.44;5070234;28;20195;-74
2023/07/27 04:45:26;;;;;;;5.77;2.83;;;;;;;21.56;52.01;96194.03;5068860;28;20314;-71
2023/07/27 04:47:53;;;;;;;6.30;3.57;;;;;;;21.58;52.21;96184.97;5086080;28;20189;-74
2023/07/27 04:50:20;;;;;;;10.13;3.63;;;;;;;21.65;52.30;96182.53;5069090;28;20235;-76
2023/07/27 04:52:47;;;;;;;5.17;3.20;;;;;;;21.64;52.44;96201.97;5068384;28;20224;-72
2023/07/27 04:55:17;;;;;;;10.70;4.73;;;;;;;21.67;52.03;96197.22;5086854;28;20247;-73
2023/07/27 04:57:45;;;;;;;9.70;4.00;;;;;;;21.82;51.84;96192.19;5086526;28;20541;-73
2023/07/27 05:00:12;;;;;;;9.13;3.57;;;;;;;21.72;51.10;96188.84;5068366;28;20189;-79
2023/07/27 05:02:41;;;;;;;5.03;2.83;;;;;;;21.66;51.80;96197.34;5087579;28;20587;-75
2023/07/27 05:05:08;;;;;;;3.73;2.53;;;;;;;21.56;51.25;96167.66;5095854;28;20669;-74
2023/07/27 05:07:35;;;;;;;3.53;2.60;;;;;;;21.67;50.53;96183.22;5093461;28;20480;-73
2023/07/27 05:10:02;;;;;;;4.73;2.50;;;;;;;21.65;49.13;96187.81;5088392;28;20239;-72
2023/07/27 05:12:32;;;;;;;3.70;2.50;;;;;;;21.65;47.23;96187.81;5070589;28;20218;-71
2023/07/27 05:14:59;;;;;;;4.67;2.77;;;;;;;21.71;46.45;96174.00;5087352;28;20192;-71
2023/07/27 05:17:27;;;;;;;6.13;2.80;;;;;;;21.99;45.87;96191.25;5069946;28;20652;-72
2023/07/27 05:19:54;;;;;;;6.00;2.60;;;;;;;21.93;45.06;96206.91;5087174;28;20274;-74
2023/07/27 05:22:22;;;;;;;7.77;3.00;;;;;;;21.88;44.61;96199.47;5068085;28;20285;-71
2023/07/27 05:24:49;;;;;;;4.33;1.90;;;;;;;21.86;43.98;96218.06;5086728;28;20195;-71
2023/07/27 05:27:16;;;;;;;3.03;1.80;;;;;;;21.92;43.19;96205.25;5067736;28;20204;-71
2023/07/27 05:29:43;;;;;;;4.63;2.27;;;;;;;21.81;43.39;96204.56;5068076;28;20199;-75
2023/07/27 05:32:10;;;;;;;2.60;1.53;;;;;;;21.85;43.66;96208.53;5086051;28;20313;-72
2023/07/27 05:34:37;;;;;;;4.40;2.37;;;;;;;21.96;43.30;96207.41;5089509;28;20216;-73
2023/07/27 05:37:04;;;;;;;3.77;1.83;;;;;;;22.10;42.59;96225.25;5071609;28;20607;-77
2023/07/27 05:39:31;;;;;;;2.60;2.00;;;;;;;22.11;41.89;96223.44;5089399;28;20744;-72
2023/07/27 05:41:59;;;;;;;5.33;1.77;;;;;;;22.06;41.96;96208.09;5090281;28;20187;-73
2023/07/27 05:44:26;;;;;;;2.57;1.60;;;;;;;22.10;42.07;96214.69;5071363;28;20204;-80
2023/07/27 05:46:55;;;;;;;3.60;2.20;;;;;;;22.16;41.65;96214.03;5071425;28;20190;-76
2023/07/27 05:49:22;;;;;;;4.70;2.03;;;;;;;22.18;41.98;96222.63;5089418;28;20642;-75
2023/07/27 05:51:49;;;;;;;3.87;1.67;;;;;;;22.23;41.90;96230.91;5089204;28;20182;-78
2023/07/27 05:54:16;;;;;;;2.07;1.70;;;;;;;22.40;41.52;96219.38;5089485;28;20195;-77
2023/07/27 05:56:43;;;;;;;4.00;2.23;;;;;;;22.34;40.98;96212.09;5054097;28;20195;-80
2023/07/27 05:59:11;;;;;;;1.90;1.57;;;;;;;22.36;40.69;96204.84;5090566;28;20202;-77
2023/07/27 06:01:37;;;;;;;2.17;1.70;;;;;;;22.46;40.68;96231.91;5088734;28;20191;-71
2023/07/27 06:04:06;;;;;;;5.00;2.63;;;;;;;22.45;40.80;96243.47;5089354;28;20219;-73
2023/07/27 06:06:35;;;;;;;3.33;1.43;;;;;;;22.44;40.99;96252.34;5070603;28;20238;-76
2023/07/27 06:09:03;;;;;;;2.93;2.07;;;;;;;22.34;41.17;96254.31;5050746;28;20231;-77
2023/07/27 06:11:30;;;;;;;2.17;1.60;;;;;;;22.43;40.99;96266.56;5068701;28;20241;-80
2023/07/27 06:13:57;;;;;;;3.87;2.47;;;;;;;22.36;41.49;96260.25;5066571;28;20252;-74
2023/07/27 06:16:25;;;;;;;2.60;1.77;;;;;;;22.39;41.60;96259.94;5068349;28;20525;-77
2023/07/27 06:18:54;;;;;;;1.67;1.33;;;;;;;22.31;41.79;96236.19;5066732;28;20239;-74
2023/07/27 06:21:21;;;;;;;3.13;2.30;;;;;;;22.60;41.34;96239.25;5068179;28;20202;-83
2023/07/27 06:23:48;;;;;;;2.30;1.87;;;;;;;22.53;41.99;96230.28;5050802;28;20554;-77
2023/07/27 06:26:15;;;;;;;4.23;3.00;;;;;;;22.49;42.44;96223.69;5068478;28;20212;-72
2023/07/27 06:28:42;;;;;;;4.43;3.20;;;;;;;22.42;42.19;96196.28;5068139;28;20639;-75
2023/07/27 06:31:09;;;;;;;3.00;2.10;;;;;;;22.35;42.55;96216.41;5066592;28;20697;-80
2023/07/27 06:33:37;;;;;;;2.77;1.87;;;;;;;22.44;42.21;96238.38;5067272;28;20243;-72
2023/07/27 06:36:07;;;;;;;2.90;2.03;;;;;;;22.31;41.96;96230.91;5067854;28;20195;-72
2023/07/27 06:38:34;;;;;;;4.00;1.93;;;;;;;22.27;41.67;96237.50;5068515;28;20250;-76
2023/07/27 06:41:01;;;;;;;4.13;2.03;;;;;;;22.25;41.87;96228.91;5067742;28;20210;-80
2023/07/27 06:43:28;;;;;;;2.97;2.30;;;;;;;22.39;41.76;96249.41;5067931;28;20697;-79
2023/07/27 06:45:55;;;;;;;3.47;2.00;;;;;;;22.42;42.17;96227.16;5067006;28;20706;-74
2023/07/27 06:48:23;;;;;;;2.50;2.00;;;;;;;22.33;41.95;96213.09;5067736;28;20196;-77
2023/07/27 06:50:50;;;;;;;2.67;2.10;;;;;;;22.46;41.60;96234.53;5068012;28;20261;-79
2023/07/27 06:53:17;;;;;;;1.70;1.50;;;;;;;22.82;41.28;96232.47;5067462;28;20776;-74
2023/07/27 06:55:44;;;;;;;4.30;2.40;;;;;;;23.14;41.02;96237.72;5068362;28;20225;-80
2023/07/27 06:58:11;;;;;;;4.17;2.13;;;;;;;23.01;41.37;96204.91;5067238;28;20187;-75
2023/07/27 07:00:38;;;;;;;3.90;2.03;;;;;;;23.22;40.76;96213.13;5066238;28;20218;-71
2023/07/27 07:03:06;;;;;;;2.13;1.70;;;;;;;23.23;40.65;96231.47;5065932;28;20203;-72
2023/07/27 07:05:33;;;;;;;2.53;1.93;;;;;;;23.30;40.80;96229.81;5067007;28;20209;-73
2023/07/27 07:08:00;;;;;;;2.70;1.70;;;;;;;23.40;39.96;96230.47;5066252;28;20204;-72
2023/07/27 07:10:27;;;;;;;2.73;2.07;;;;;;;23.60;40.11;96227.44;5029075;28;20255;-77
2023/07/27 07:12:55;;;;;;;5.23;2.73;;;;;;;23.74;38.78;96246.06;5046245;28;20257;-75
2023/07/27 07:15:22;;;;;;;4.60;2.70;;;;;;;23.75;38.92;96253.03;5045799;28;20711;-77
2023/07/27 07:17:49;;;;;;;4.17;2.17;;;;;;;23.82;37.48;96227.53;5062757;28;20201;-72
2023/07/27 07:20:16;;;;;;;3.50;1.90;;;;;;;24.10;37.21;96223.47;5047320;28;20245;-73
2023/07/27 07:22:43;;;;;;;2.17;1.70;;;;;;;24.12;36.85;96218.84;5047243;28;20244;-72
2023/07/27 07:25:10;;;;;;;2.67;1.80;;;;;;;24.17;37.10;96216.47;5047279;28;20213;-74
2023/07/27 07:27:37;;;;;;;4.03;2.00;;;;;;;24.28;35.55;96233.00;5046687;28;20741;-72
2023/07/27 07:30:05;;;;;;;3.47;1.97;;;;;;;24.49;35.70;96225.22;5047665;28;20548;-73
2023/07/27 07:32:33;;;;;;;2.67;1.87;;;;;;;24.25;35.18;96228.88;5045131;28;20215;-73
2023/07/27 07:35:02;;;;;;;4.33;2.80;;;;;;;24.16;35.82;96217.50;5045449;28;20201;-74
2023/07/27 07:37:30;;;;;;;5.10;3.03;;;;;;;24.42;35.70;96224.31;5045728;28;20188;-75
2023/07/27 07:39:57;;;;;;;4.33;2.43;;;;;;;24.41;35.29;96230.56;5047010;28;20674;-74
2023/07/27 07:42:25;;;;;;;5.07;2.07;;;;;;;24.36;35.97;96214.41;5062731;28;20570;-74
2023/07/27 07:44:52;;;;;;;5.43;2.90;;;;;;;24.60;35.69;96216.88;5046595;28;20188;-74
2023/07/27 07:47:19;;;;;;;1.53;1.40;;;;;;;24.52;35.36;96217.78;5045902;28;21087;-75
2023/07/27 07:49:48;;;;;;;2.50;1.93;;;;;;;24.72;35.30;96231.38;5046504;28;20215;-79
2023/07/27 07:52:19;;;;;;;3.57;2.57;;;;;;;24.51;33.57;96223.22;5046807;28;20663;-73
2023/07/27 07:54:47;;;;;;;3.07;2.07;;;;;;;24.50;34.35;96232.19;5046703;28;20224;-72
2023/07/27 07:57:19;;;;;;;3.13;2.23;;;;;;;24.48;35.44;96229.72;5046072;28;20197;-75
2023/07/27 07:59:47;;;;;;;4.30;2.40;;;;;;;24.45;34.71;96223.94;5046831;28;20211;-74
2023/07/27 08:02:14;;;;;;;3.63;2.27;;;;;;;24.35;35.46;96234.75;5046349;28;20626;-74
2023/07/27 08:04:41;;;;;;;2.73;1.67;;;;;;;24.08;36.13;96246.66;5047506;28;20198;-73
2023/07/27 08:07:08;;;;;;;3.87;1.70;;;;;;;24.25;36.18;96253.47;5046336;28;20285;-78
2023/07/27 08:10:15;;;;;;;2.27;1.93;;;;;;;24.15;36.39;96258.16;5072294;28;20222;-73
2023/07/27 08:13:36;;;;;;;2.43;1.50;;;;;;;23.94;36.57;96210.31;5085922;28;20232;-76
2023/07/27 08:16:59;;;;;;;1.23;1.13;;;;;;;24.24;36.19;96258.97;5085905;28;20669;-73
2023/07/27 08:20:22;;;;;;;2.33;1.50;;;;;;;23.95;36.50;96278.06;5085426;28;20197;-80
2023/07/27 08:23:43;;;;;;;3.07;1.73;;;;;;;23.97;36.82;96281.38;5067351;28;20193;-80
2023/07/27 08:27:05;;;;;;;3.03;2.10;;;;;;;23.92;37.14;96286.38;5085919;28;20647;-74
2023/07/27 08:30:25;;;;;;;3.23;2.17;;;;;;;23.76;38.02;96277.66;5085368;28;20180;-74
2023/07/27 08:33:46;;;;;;;2.83;2.13;;;;;;;23.85;38.00;96303.91;5035212;28;20239;-73
2023/07/27 08:37:07;;;;;;;3.73;2.27;;;;;;;23.57;38.05;96276.22;5084755;28;20193;-73
2023/07/27 08:40:28;;;;;;;3.73;2.20;;;;;;;23.56;37.99;96277.19;5085196;28;20185;-74
2023/07/27 08:43:51;;;;;;;4.50;1.70;;;;;;;23.48;38.45;96282.50;5085299;28;20205;-73
2023/07/27 08:47:12;;;;;;;2.47;1.90;;;;;;;23.51;39.06;96268.94;5084969;28;20275;-74
2023/07/27 08:49:53;;;;;;;4.20;2.33;;;;;;;23.53;38.70;96274.06;5075503;28;20684;-76
2023/07/27 08:52:24;;;;;;;4.83;2.57;;;;;;;23.63;38.74;96275.53;5066556;28;20199;-74
2023/07/27 08:54:51;;;;;;;3.37;2.40;;;;;;;23.79;38.79;96264.91;5047379;28;20226;-78
2023/07/27 08:57:18;;;;;;;2.77;2.30;;;;;;;23.56;38.52;96256.03;5047640;28;20201;-73
2023/07/27 08:59:48;;;;;;;3.03;2.03;;;;;;;23.40;38.80;96264.00;5065870;28;20261;-74
2023/07/27 09:02:15;;;;;;;3.57;2.17;;;;;;;23.32;39.04;96262.22;5047674;28;20203;-74
2023/07/27 09:04:42;;;;;;;1.90;1.50;;;;;;;23.65;39.16;96294.69;5048100;28;20203;-76
2023/07/27 09:07:09;;;;;;;2.53;2.10;;;;;;;23.34;39.19;96288.47;5047657;28;20192;-73
2023/07/27 09:09:37;;;;;;;1.93;1.73;;;;;;;23.22;39.65;96281.84;5062102;28;20240;-74
2023/07/27 09:12:06;;;;;;;3.07;2.27;;;;;;;23.13;40.15;96298.66;5082317;28;20185;-75
2023/07/27 09:14:38;;;;;;;4.00;2.33;;;;;;;23.12;40.26;96279.34;5073441;28;20251;-72
2023/07/27 09:17:07;;;;;;;6.63;2.27;;;;;;;22.89;41.13;96311.88;5071703;28;20192;-73
2023/07/27 09:19:38;;;;;;;4.13;2.30;;;;;;;22.87;41.12;96330.53;5053481;28;20192;-73
2023/07/27 09:22:07;;;;;;;4.03;2.30;;;;;;;22.93;41.78;96350.16;5053080;28;20693;-76
2023/07/27 09:24:35;;;;;;;3.27;2.33;;;;;;;22.89;41.40;96360.25;5069837;28;20574;-76
2023/07/27 09:27:08;;;;;;;9.37;3.40;;;;;;;22.71;41.89;96371.91;5072907;28;20400;-74
2023/07/27 09:29:36;;;;;;;4.60;2.37;;;;;;;22.51;42.45;96350.19;5089407;28;20574;-73
2023/07/27 09:32:08;;;;;;;3.83;2.27;;;;;;;22.34;43.07;96359.84;5059545;28;20609;-72
2023/07/27 09:34:35;;;;;;;6.03;2.73;;;;;;;22.29;43.77;96382.44;5090685;28;20756;-72
2023/07/27 09:37:04;;;;;;;6.77;3.13;;;;;;;22.22;43.87;96394.59;5068918;28;20659;-73
2023/07/27 09:39:36;;;;;;;3.63;2.27;;;;;;;22.01;43.05;96368.59;5037534;28;20314;-74
2023/07/27 09:42:07;;;;;;;4.00;2.57;;;;;;;21.98;43.22;96368.09;5068626;28;20184;-73
2023/07/27 09:44:47;;;;;;;4.43;2.10;;;;;;;22.02;42.29;96379.97;5069469;28;20270;-76
2023/07/27 09:47:23;;;;;;;2.27;1.57;;;;;;;22.14;41.13;96399.81;5069201;28;20199;-76
2023/07/27 09:49:52;;;;;;;3.50;2.00;;;;;;;22.34;40.75;96404.72;5069011;28;20955;-74
2023/07/27 09:52:20;;;;;;;2.63;1.80;;;;;;;22.31;41.16;96412.13;5051871;28;20274;-76
2023/07/27 09:54:48;;;;;;;4.77;2.80;;;;;;;22.43;40.92;96419.59;5068130;28;20223;-73
2023/07/27 09:57:15;;;;;;;3.67;2.37;;;;;;;22.53;40.66;96424.75;5069928;28;20188;-74
2023/07/27 09:59:43;;;;;;;4.50;1.80;;;;;;;22.64;40.96;96414.78;5034071;28;20196;-73
2023/07/27 10:02:13;;;;;;;3.93;2.63;;;;;;;22.53;41.02;96417.66;5051144;28;20779;-77
2023/07/27 10:04:51;;;;;;;5.20;2.40;;;;;;;22.36;41.21;96404.56;5068702;28;20202;-74
2023/07/27 10:07:20;;;;;;;4.03;2.33;;;;;;;22.39;41.14;96383.13;5068361;28;20290;-75
2023/07/27 10:10:08;;;;;;;3.20;1.80;;;;;;;22.03;42.27;96337.63;5068853;28;20729;-77
2023/07/27 10:12:38;;;;;;;5.27;2.73;;;;;;;21.80;44.49;96323.31;5050011;28;20196;-78
2023/07/27 10:15:28;;;;;;;6.13;2.93;;;;;;;21.47;45.32;96316.19;5069155;28;20736;-74
2023/07/27 10:17:58;;;;;;;5.27;2.87;;;;;;;21.49;44.62;96330.03;5017618;28;20282;-75
2023/07/27 10:20:29;;;;;;;4.10;2.90;;;;;;;21.72;43.28;96341.72;5049428;28;20270;-75
2023/07/27 10:23:18;;;;;;;3.20;2.20;;;;;;;21.81;43.00;96380.31;5069041;28;20195;-74
2023/07/27 10:26:03;;;;;;;3.87;2.50;;;;;;;21.93;42.73;96391.47;5050017;28;20248;-78
2023/07/27 10:28:43;;;;;;;2.50;1.90;;;;;;;22.12;42.95;96423.72;5068526;28;20305;-71
2023/07/27 10:31:13;;;;;;;3.50;2.17;;;;;;;21.92;43.01;96424.94;5068740;28;20680;-76
2023/07/27 10:33:46;;;;;;;3.63;2.50;;;;;;;21.90;43.29;96403.16;5067901;28;20223;-76
2023/07/27 10:36:14;;;;;;;2.07;1.70;;;;;;;22.17;42.97;96379.25;5051097;28;20227;-79
2023/07/27 10:38:55;;;;;;;5.57;3.20;;;;;;;22.53;42.35;96375.44;5073642;28;20291;-76
2023/07/27 10:41:24;;;;;;;4.00;2.90;;;;;;;22.55;42.19;96384.03;5088243;28;20194;-73
2023/07/27 10:44:06;;;;;;;2.87;2.30;;;;;;;22.76;42.28;96385.44;5088319;28;20203;-71
2023/07/27 10:46:36;;;;;;;3.87;2.77;;;;;;;23.13;41.16;96372.63;5069670;28;20591;-79
2023/07/27 10:49:13;;;;;;;5.97;2.40;;;;;;;23.18;40.88;96386.19;5069963;28;20200;-73
2023/07/27 10:51:40;;;;;;;2.63;2.23;;;;;;;23.30;40.64;96375.16;5087902;28;20203;-71
2023/07/27 10:54:11;;;;;;;3.83;2.73;;;;;;;23.41;40.61;96361.63;5087624;28;20261;-72
2023/07/27 10:56:40;;;;;;;3.20;2.43;;;;;;;23.82;39.86;96365.03;5087897;28;20275;-73
2023/07/27 10:59:13;;;;;;;5.10;2.33;;;;;;;23.91;39.63;96372.00;5087665;28;20204;-72
2023/07/27 11:01:41;;;;;;;2.50;1.70;;;;;;;24.11;39.06;96380.41;5088500;28;20205;-74
2023/07/27 11:04:10;;;;;;;3.07;2.60;;;;;;;24.17;39.67;96387.69;5069580;28;20354;-72
2023/07/27 11:06:42;;;;;;;3.17;2.50;;;;;;;24.46;39.08;96384.44;5088316;28;20186;-73
2023/07/27 11:09:14;;;;;;;1.63;1.50;;;;;;;24.39;39.57;96409.94;5087643;28;20649;-77
2023/07/27 11:11:41;;;;;;;3.77;2.50;;;;;;;24.38;40.04;96384.47;5088058;28;20660;-76
2023/07/27 11:14:09;;;;;;;4.27;2.40;;;;;;;24.61;39.61;96382.69;5069795;28;20659;-75
2023/07/27 11:16:37;;;;;;;5.70;2.33;;;;;;;24.50;40.01;96399.00;5087408;28;20196;-73
2023/07/27 11:19:09;;;;;;;2.97;2.10;;;;;;;24.07;40.27;96368.53;5088369;28;20674;-74
2023/07/27 11:21:39;;;;;;;3.10;2.00;;;;;;;24.10;40.51;96363.72;5087296;28;20702;-74
2023/07/27 11:24:08;;;;;;;3.40;2.43;;;;;;;23.97;40.70;96349.31;5069367;28;20268;-74
2023/07/27 11:26:36;;;;;;;3.67;2.30;;;;;;;24.28;40.23;96355.53;5087131;28;20186;-78
2023/07/27 11:29:05;;;;;;;5.37;3.30;;;;;;;24.08;39.38;96352.47;5086891;28;20198;-73
2023/07/27 11:31:32;;;;;;;2.57;2.10;;;;;;;24.39;39.62;96346.41;5068330;28;20624;-78
2023/07/27 11:34:02;;;;;;;3.73;2.70;;;;;;;24.63;38.28;96341.81;5068482;28;20225;-78
2023/07/27 11:36:32;;;;;;;2.53;2.13;;;;;;;24.88;37.09;96353.13;5069774;28;20196;-76
2023/07/27 11:39:02;;;;;;;3.20;2.10;;;;;;;24.93;36.87;96359.56;5068021;28;20200;-73
2023/07/27 11:41:31;;;;;;;14.90;3.83;;;;;;;24.99;34.36;96334.19;5087389;28;20195;-73
2023/07/27 11:44:15;;;;;;;6.80;2.60;;;;;;;24.91;35.87;96352.78;5086818;28;20196;-74
2023/07/27 11:46:47;;;;;;;3.70;2.07;;;;;;;24.81;36.36;96357.50;5086709;28;20965;-71
2023/07/27 11:49:16;;;;;;;4.17;2.03;;;;;;;24.83;35.85;96351.00;5069214;28;20218;-72
2023/07/27 11:51:45;;;;;;;8.70;3.70;;;;;;;24.76;37.09;96365.13;5086182;28;20219;-76
2023/07/27 11:54:25;;;;;;;5.83;3.00;;;;;;;24.52;36.71;96350.16;5067882;28;20223;-73